Time;durP1;ratioP1;P1;durP2;ratioP2;P2;SDS_P1;SDS_P2;PMS_P1;PMS_P2;Temp;Humidity;BMP_temperature;BMP_pressure;BME280_temperature;BME280_humidity;BME280_pressure;Samples;Min_cycle;Max_cycle;Signal;HPM_P1;HPM_P2
2023/12/10 00:01:52;;;;;;;5.40;4.70;;;6.40;99.90;;;;;;5036681;28;20637;-84
2023/12/10 00:04:18;;;;;;;5.50;4.83;;;6.30;99.90;;;;;;5036641;28;20292;-85
2023/12/10 00:06:44;;;;;;;5.90;4.70;;;6.30;99.90;;;;;;5036642;28;20185;-84
2023/12/10 00:09:09;;;;;;;6.13;4.70;;;6.30;99.90;;;;;;5036356;28;20192;-84
2023/12/10 00:11:35;;;;;;;5.93;4.80;;;6.30;99.90;;;;;;5036276;28;20205;-84
2023/12/10 00:14:01;;;;;;;5.97;4.80;;;6.30;99.90;;;;;;5036527;28;20331;-84
2023/12/10 00:16:27;;;;;;;6.40;4.47;;;6.30;99.90;;;;;;5036371;28;20196;-84
2023/12/10 00:18:52;;;;;;;5.93;4.60;;;6.30;99.90;;;;;;5029529;28;20284;-85
2023/12/10 00:21:18;;;;;;;7.43;4.40;;;6.30;99.90;;;;;;5035716;28;20245;-84
2023/12/10 00:23:43;;;;;;;6.03;4.33;;;6.30;99.90;;;;;;5053863;28;20231;-84
2023/12/10 00:26:09;;;;;;;7.63;4.43;;;6.30;99.90;;;;;;5036007;28;20249;-84
2023/12/10 00:28:35;;;;;;;6.73;3.90;;;6.30;99.90;;;;;;5036408;28;20180;-85
2023/12/10 00:31:00;;;;;;;6.00;4.00;;;6.30;99.90;;;;;;5035750;28;20247;-84
2023/12/10 00:33:26;;;;;;;6.17;4.03;;;6.30;99.90;;;;;;5053570;28;20180;-84
2023/12/10 00:35:52;;;;;;;6.53;3.63;;;6.30;99.90;;;;;;5053677;28;20228;-84
2023/12/10 00:38:17;;;;;;;8.80;4.23;;;6.20;99.90;;;;;;5035824;28;20178;-84
2023/12/10 00:40:43;;;;;;;5.80;3.27;;;6.30;99.90;;;;;;5053275;28;20177;-84
2023/12/10 00:43:10;;;;;;;5.13;3.50;;;6.30;99.90;;;;;;5053772;28;20177;-86
2023/12/10 00:45:36;;;;;;;7.07;3.63;;;6.30;99.90;;;;;;5053810;28;20221;-84
2023/12/10 00:48:02;;;;;;;8.93;3.13;;;6.40;99.90;;;;;;5053874;28;20207;-84
2023/12/10 00:50:28;;;;;;;10.63;3.20;;;6.50;99.90;;;;;;5034514;28;20207;-84
2023/12/10 00:52:53;;;;;;;8.50;3.17;;;6.50;99.90;;;;;;5035181;28;20213;-85
2023/12/10 00:55:19;;;;;;;10.67;3.00;;;6.50;99.90;;;;;;5035617;28;20203;-84
2023/12/10 00:57:45;;;;;;;7.50;2.83;;;6.50;99.90;;;;;;5035669;28;20177;-84
2023/12/10 01:00:11;;;;;;;8.97;2.90;;;6.50;99.90;;;;;;5052922;28;20168;-84
2023/12/10 01:02:36;;;;;;;7.73;2.80;;;6.60;99.90;;;;;;5053006;28;20584;-84
2023/12/10 01:05:02;;;;;;;7.80;2.40;;;6.70;99.90;;;;;;5035434;28;20282;-85
2023/12/10 01:07:28;;;;;;;8.67;2.60;;;6.80;99.90;;;;;;5035264;28;20180;-84
2023/12/10 01:09:54;;;;;;;8.03;2.60;;;6.80;99.90;;;;;;5035062;28;20173;-84
2023/12/10 01:12:19;;;;;;;8.60;2.47;;;6.70;99.90;;;;;;5035360;28;20648;-84
2023/12/10 01:14:45;;;;;;;5.97;2.40;;;6.70;99.90;;;;;;5035199;28;20261;-84
2023/12/10 01:17:12;;;;;;;8.10;2.50;;;6.70;99.90;;;;;;5035078;28;20182;-84
2023/12/10 01:19:38;;;;;;;8.03;2.70;;;6.70;99.90;;;;;;5052136;28;20177;-84
2023/12/10 01:22:04;;;;;;;9.87;2.70;;;6.70;99.90;;;;;;5053294;28;20528;-84
2023/12/10 01:24:30;;;;;;;8.03;2.80;;;6.70;99.90;;;;;;5035024;28;20218;-84
2023/12/10 01:26:55;;;;;;;4.00;2.07;;;6.70;99.90;;;;;;5035166;28;20174;-84
2023/12/10 01:29:21;;;;;;;6.23;2.37;;;6.60;99.90;;;;;;5052645;28;20177;-84
2023/12/10 01:31:46;;;;;;;8.37;2.33;;;6.60;99.90;;;;;;5035024;28;20212;-86
2023/12/10 01:34:12;;;;;;;6.73;2.43;;;6.70;99.90;;;;;;5052668;28;20193;-84
2023/12/10 01:36:38;;;;;;;7.17;2.27;;;6.60;99.90;;;;;;5034793;28;20203;-84
2023/12/10 01:39:03;;;;;;;7.10;2.00;;;6.60;99.90;;;;;;5034642;28;20166;-84
2023/12/10 01:41:29;;;;;;;8.20;2.60;;;6.70;99.90;;;;;;5034627;28;20181;-84
2023/12/10 01:43:55;;;;;;;9.83;2.00;;;6.80;99.90;;;;;;5052669;28;20201;-86
2023/12/10 01:46:21;;;;;;;9.97;2.00;;;6.70;99.90;;;;;;5034707;28;20311;-84
2023/12/10 01:48:51;;;;;;;10.03;2.40;;;6.70;99.90;;;;;;5034837;28;20205;-85
2023/12/10 01:51:16;;;;;;;5.73;2.83;;;6.70;99.90;;;;;;5034044;28;20288;-84
2023/12/10 01:53:42;;;;;;;9.70;2.30;;;6.70;99.90;;;;;;5034864;28;20277;-84
2023/12/10 01:56:09;;;;;;;7.80;2.07;;;6.70;99.90;;;;;;5052664;28;20237;-83
2023/12/10 01:58:36;;;;;;;7.90;2.10;;;6.70;99.90;;;;;;5052245;28;20224;-82
2023/12/10 02:01:01;;;;;;;8.67;2.20;;;6.70;99.90;;;;;;5033963;28;20523;-85
2023/12/10 02:03:30;;;;;;;7.33;2.30;;;6.70;99.90;;;;;;5034184;28;20237;-83
2023/12/10 02:05:56;;;;;;;8.43;2.57;;;6.70;99.90;;;;;;5034451;28;20195;-84
2023/12/10 02:08:22;;;;;;;6.90;2.10;;;6.70;99.90;;;;;;5052226;28;20236;-84
2023/12/10 02:10:48;;;;;;;10.97;2.30;;;6.60;99.90;;;;;;5051604;28;20167;-85
2023/12/10 02:13:15;;;;;;;7.10;2.30;;;6.60;99.90;;;;;;5051990;28;20608;-84
2023/12/10 02:15:41;;;;;;;9.17;2.13;;;6.50;99.90;;;;;;5034246;28;20230;-83
2023/12/10 02:18:07;;;;;;;6.87;2.23;;;6.50;99.90;;;;;;5052071;28;20177;-84
2023/12/10 02:20:33;;;;;;;9.37;2.43;;;6.60;99.90;;;;;;5051691;28;20207;-84
2023/12/10 02:23:08;;;;;;;8.70;2.93;;;6.60;99.90;;;;;;5034067;28;20638;-84
2023/12/10 02:25:35;;;;;;;7.37;2.20;;;6.60;99.90;;;;;;5055412;22;20273;-86
2023/12/10 02:28:02;;;;;;;4.87;2.00;;;6.60;99.90;;;;;;5031813;28;20174;-86
2023/12/10 02:30:28;;;;;;;6.77;2.10;;;6.60;99.90;;;;;;5030074;28;20262;-85
2023/12/10 02:32:54;;;;;;;8.80;2.67;;;6.60;99.90;;;;;;5031776;28;20251;-86
2023/12/10 02:35:20;;;;;;;11.37;3.00;;;6.60;99.90;;;;;;5031731;28;20194;-86
2023/12/10 02:37:45;;;;;;;7.87;2.20;;;6.50;99.90;;;;;;5031898;28;20174;-86
2023/12/10 02:40:11;;;;;;;8.50;2.00;;;6.50;99.90;;;;;;5030017;28;20197;-85
2023/12/10 02:42:37;;;;;;;8.87;2.10;;;6.50;99.90;;;;;;5031684;28;20202;-86
2023/12/10 02:45:03;;;;;;;10.07;2.70;;;6.50;99.90;;;;;;5030375;28;20206;-86
2023/12/10 02:47:29;;;;;;;14.50;2.80;;;6.50;99.90;;;;;;5031619;28;20201;-86
2023/12/10 02:49:54;;;;;;;12.93;2.77;;;6.40;99.90;;;;;;5030048;28;20209;-85
2023/12/10 02:52:23;;;;;;;7.27;2.07;;;6.50;99.90;;;;;;5030823;28;20604;-85
2023/12/10 02:54:48;;;;;;;11.10;2.67;;;6.50;99.90;;;;;;5030617;28;20224;-85
2023/12/10 02:57:14;;;;;;;12.80;2.90;;;6.50;99.90;;;;;;5030362;28;20178;-86
2023/12/10 02:59:40;;;;;;;9.70;2.50;;;6.50;99.90;;;;;;5029807;28;20549;-86
2023/12/10 03:02:06;;;;;;;12.97;2.70;;;6.50;99.90;;;;;;5030371;28;20615;-86
2023/12/10 03:04:31;;;;;;;9.53;2.70;;;6.40;99.90;;;;;;5031583;28;20202;-86
2023/12/10 03:06:57;;;;;;;14.17;2.47;;;6.40;99.90;;;;;;5030169;28;20194;-86
2023/12/10 03:09:22;;;;;;;13.13;2.67;;;6.40;99.90;;;;;;5029736;28;20182;-86
2023/12/10 03:11:48;;;;;;;13.63;2.80;;;6.40;99.90;;;;;;5030131;28;20637;-85
2023/12/10 03:14:13;;;;;;;13.77;3.80;;;6.40;99.90;;;;;;5030960;28;20179;-85
2023/12/10 03:16:39;;;;;;;10.73;2.87;;;6.30;99.90;;;;;;5035358;28;20309;-85
2023/12/10 03:19:05;;;;;;;9.73;2.33;;;6.40;99.90;;;;;;5035062;28;20179;-85
2023/12/10 03:21:30;;;;;;;11.20;2.73;;;6.40;99.90;;;;;;5034767;28;20252;-86
2023/12/10 03:23:56;;;;;;;13.80;2.83;;;6.30;99.90;;;;;;5035157;28;20650;-86
2023/12/10 03:26:21;;;;;;;15.67;2.97;;;6.30;99.90;;;;;;5033905;28;20213;-86
2023/12/10 03:28:47;;;;;;;11.07;2.50;;;6.30;99.90;;;;;;5033814;28;20257;-86
2023/12/10 03:31:12;;;;;;;10.50;2.60;;;6.30;99.90;;;;;;5034100;28;20205;-86
2023/12/10 03:33:38;;;;;;;10.47;2.43;;;6.20;99.90;;;;;;5033903;28;20199;-86
2023/12/10 03:36:04;;;;;;;14.80;2.90;;;6.20;99.90;;;;;;5033377;28;20426;-86
2023/12/10 03:38:31;;;;;;;17.57;3.33;;;6.20;99.90;;;;;;5034751;28;20184;-85
2023/12/10 03:40:56;;;;;;;12.80;2.83;;;6.20;99.90;;;;;;5033874;28;20196;-86
2023/12/10 03:43:22;;;;;;;14.03;2.63;;;6.20;99.90;;;;;;5034430;28;20269;-86
2023/12/10 03:45:47;;;;;;;12.20;2.93;;;6.20;99.90;;;;;;5034848;28;20201;-86
2023/12/10 03:48:13;;;;;;;12.80;2.87;;;6.20;99.90;;;;;;5033440;28;20280;-85
2023/12/10 03:50:39;;;;;;;16.77;3.23;;;6.20;99.90;;;;;;5032917;28;20179;-86
2023/12/10 03:53:04;;;;;;;15.73;3.27;;;6.20;99.90;;;;;;5034582;28;20215;-85
2023/12/10 03:55:30;;;;;;;15.33;2.83;;;6.30;99.90;;;;;;5034767;28;20722;-85
2023/12/10 03:57:55;;;;;;;14.23;2.70;;;6.20;99.90;;;;;;5034384;28;20174;-86
2023/12/10 04:00:21;;;;;;;12.57;2.40;;;6.30;99.90;;;;;;5032639;28;20177;-85
2023/12/10 04:02:46;;;;;;;10.10;2.63;;;6.30;99.90;;;;;;5033233;28;20181;-85
2023/12/10 04:05:12;;;;;;;11.97;2.60;;;6.30;99.90;;;;;;5032982;28;20200;-85
2023/12/10 04:07:39;;;;;;;12.77;2.40;;;6.30;99.90;;;;;;5034207;28;20178;-85
2023/12/10 04:10:06;;;;;;;15.23;3.97;;;6.20;99.90;;;;;;5033550;28;20578;-86
2023/12/10 04:12:31;;;;;;;18.43;3.20;;;6.20;99.90;;;;;;5032710;28;20220;-86
2023/12/10 04:14:57;;;;;;;20.83;4.70;;;6.20;99.90;;;;;;5033936;28;20194;-86
2023/12/10 04:17:23;;;;;;;11.53;2.60;;;6.20;99.90;;;;;;5032945;28;20205;-85
2023/12/10 04:19:49;;;;;;;19.33;3.53;;;6.10;99.90;;;;;;5033918;28;20600;-85
2023/12/10 04:22:15;;;;;;;15.97;2.60;;;6.10;99.90;;;;;;5033654;28;20245;-86
2023/12/10 04:24:40;;;;;;;12.57;3.20;;;6.10;99.90;;;;;;5032611;28;20235;-85
2023/12/10 04:27:06;;;;;;;13.93;2.63;;;6.00;99.90;;;;;;5032575;28;20188;-85
2023/12/10 04:29:32;;;;;;;17.17;3.27;;;6.10;99.90;;;;;;5033169;28;20196;-85
2023/12/10 04:31:57;;;;;;;11.57;2.87;;;6.10;99.90;;;;;;5032613;28;20707;-85
2023/12/10 04:34:23;;;;;;;14.37;3.30;;;6.00;99.90;;;;;;5032669;28;20177;-85
2023/12/10 04:36:48;;;;;;;16.57;3.00;;;6.10;99.90;;;;;;5033643;28;20257;-85
2023/12/10 04:39:15;;;;;;;14.57;2.47;;;6.10;99.90;;;;;;5033613;28;20674;-86
2023/12/10 04:41:41;;;;;;;14.93;2.80;;;6.10;99.90;;;;;;5031966;28;20265;-86
2023/12/10 04:44:07;;;;;;;13.30;2.60;;;6.10;99.90;;;;;;5033493;28;20251;-85
2023/12/10 04:46:33;;;;;;;16.57;3.40;;;6.20;99.90;;;;;;5033315;28;20221;-85
2023/12/10 04:48:58;;;;;;;13.87;2.60;;;6.20;99.90;;;;;;5032112;28;20177;-85
2023/12/10 04:51:24;;;;;;;12.20;3.23;;;6.20;99.90;;;;;;5033172;28;20288;-85
2023/12/10 04:53:50;;;;;;;14.17;2.80;;;6.20;99.90;;;;;;5032160;28;20170;-85
2023/12/10 04:56:17;;;;;;;12.67;2.63;;;6.20;99.90;;;;;;5033279;28;20244;-85
2023/12/10 04:58:43;;;;;;;13.20;2.60;;;6.20;99.90;;;;;;5033575;28;20216;-85
2023/12/10 05:01:08;;;;;;;14.87;3.47;;;6.20;99.90;;;;;;5032670;28;20208;-86
2023/12/10 05:03:34;;;;;;;13.60;3.30;;;6.20;99.90;;;;;;5033306;28;20227;-85
2023/12/10 05:06:00;;;;;;;8.40;2.43;;;6.10;99.90;;;;;;5033196;28;20220;-86
2023/12/10 05:08:26;;;;;;;19.17;2.87;;;6.10;99.90;;;;;;5033081;28;20186;-85
2023/12/10 05:10:51;;;;;;;14.67;2.70;;;6.10;99.90;;;;;;5032423;28;20224;-86
2023/12/10 05:13:17;;;;;;;9.30;2.50;;;6.20;99.90;;;;;;5032820;28;20571;-86
2023/12/10 05:15:43;;;;;;;10.70;2.50;;;6.10;99.90;;;;;;5031402;28;20605;-86
2023/12/10 05:18:08;;;;;;;11.40;2.30;;;6.20;99.90;;;;;;5032901;28;20174;-85
2023/12/10 05:20:34;;;;;;;8.87;2.20;;;6.20;99.90;;;;;;5032261;28;20599;-85
2023/12/10 05:23:00;;;;;;;11.03;2.60;;;6.20;99.90;;;;;;5031485;28;20170;-85
2023/12/10 05:25:30;;;;;;;9.20;2.53;;;6.30;99.90;;;;;;5032728;28;20220;-85
2023/12/10 05:27:56;;;;;;;13.70;2.80;;;6.30;99.90;;;;;;5032770;28;20670;-85
2023/12/10 05:30:22;;;;;;;15.17;3.10;;;6.30;99.90;;;;;;5031017;28;20174;-85
2023/12/10 05:32:47;;;;;;;11.73;2.97;;;6.20;99.90;;;;;;5032626;28;20202;-85
2023/12/10 05:35:13;;;;;;;11.47;2.73;;;6.20;99.90;;;;;;5031406;28;20205;-85
2023/12/10 05:37:39;;;;;;;11.13;2.77;;;6.10;99.90;;;;;;5031995;28;20232;-85
2023/12/10 05:40:05;;;;;;;14.70;2.80;;;6.10;99.90;;;;;;5032020;28;20784;-86
2023/12/10 05:42:30;;;;;;;12.77;2.27;;;6.20;99.90;;;;;;5031174;28;20186;-86
2023/12/10 05:44:57;;;;;;;15.13;2.80;;;6.20;99.90;;;;;;5031208;28;20223;-85
2023/12/10 05:47:22;;;;;;;13.40;2.77;;;6.20;99.90;;;;;;5031235;28;20257;-86
2023/12/10 05:49:48;;;;;;;11.17;2.23;;;6.20;99.90;;;;;;5030534;28;20268;-86
2023/12/10 05:52:14;;;;;;;8.57;2.20;;;6.20;99.90;;;;;;5031020;28;20233;-85
2023/12/10 05:54:39;;;;;;;12.67;2.60;;;6.30;99.90;;;;;;5032168;28;20241;-83
2023/12/10 05:57:05;;;;;;;10.00;2.53;;;6.30;99.90;;;;;;5032802;28;20177;-83
2023/12/10 05:59:30;;;;;;;9.40;2.63;;;6.30;99.90;;;;;;5032789;28;20209;-84
2023/12/10 06:01:56;;;;;;;12.57;2.80;;;6.20;99.90;;;;;;5031500;28;20260;-85
2023/12/10 06:04:22;;;;;;;14.50;2.60;;;6.20;99.90;;;;;;5031564;28;20181;-83
2023/12/10 06:06:48;;;;;;;10.63;2.33;;;6.30;99.90;;;;;;5032751;28;20190;-84
2023/12/10 06:09:17;;;;;;;8.53;2.37;;;6.30;99.90;;;;;;5031565;28;20185;-84
2023/12/10 06:11:42;;;;;;;13.40;2.73;;;6.30;99.90;;;;;;5032172;28;20216;-84
2023/12/10 06:14:08;;;;;;;11.90;2.30;;;6.30;99.90;;;;;;5032575;28;20173;-84
2023/12/10 06:16:34;;;;;;;10.83;2.43;;;6.30;99.90;;;;;;5031412;28;20189;-84
2023/12/10 06:18:59;;;;;;;13.73;2.83;;;6.20;99.90;;;;;;5031148;28;20177;-84
2023/12/10 06:21:25;;;;;;;10.00;2.17;;;6.30;99.90;;;;;;5032130;28;20185;-85
2023/12/10 06:23:50;;;;;;;9.27;2.27;;;6.30;99.90;;;;;;5032556;28;20178;-83
2023/12/10 06:26:16;;;;;;;10.57;2.20;;;6.30;99.90;;;;;;5032368;28;20705;-84
2023/12/10 06:28:42;;;;;;;8.30;2.00;;;6.30;99.90;;;;;;5031552;28;20232;-84
2023/12/10 06:31:07;;;;;;;12.23;2.53;;;6.30;99.90;;;;;;5030551;28;20181;-83
2023/12/10 06:33:33;;;;;;;9.67;2.27;;;6.30;99.90;;;;;;5031260;28;20174;-84
2023/12/10 06:35:58;;;;;;;13.60;2.20;;;6.30;99.90;;;;;;5031178;28;20732;-85
2023/12/10 06:38:24;;;;;;;10.60;2.00;;;6.30;99.90;;;;;;5032049;28;20223;-85
2023/12/10 06:40:51;;;;;;;10.57;2.47;;;6.30;99.90;;;;;;5031563;28;20181;-83
2023/12/10 06:43:17;;;;;;;8.93;2.07;;;6.30;99.90;;;;;;5032494;28;20209;-84
2023/12/10 06:45:42;;;;;;;10.50;2.20;;;6.30;99.90;;;;;;5032166;28;20189;-83
2023/12/10 06:48:08;;;;;;;12.17;2.40;;;6.30;99.90;;;;;;5032782;28;20181;-84
2023/12/10 06:50:33;;;;;;;8.83;2.10;;;6.30;99.90;;;;;;5034530;28;20202;-84
2023/12/10 06:52:59;;;;;;;10.77;2.90;;;6.40;99.90;;;;;;5035760;28;20209;-82
2023/12/10 06:55:25;;;;;;;6.47;2.00;;;6.40;99.90;;;;;;5036231;28;20221;-81
2023/12/10 06:57:50;;;;;;;11.57;2.33;;;6.40;99.90;;;;;;5033957;28;20184;-81
2023/12/10 07:00:18;;;;;;;7.83;2.13;;;6.40;99.90;;;;;;5033824;28;20227;-83
2023/12/10 07:02:44;;;;;;;5.67;1.93;;;6.40;99.90;;;;;;5014788;28;20185;-83
2023/12/10 07:05:10;;;;;;;9.20;2.20;;;6.50;99.90;;;;;;5016079;28;20250;-84
2023/12/10 07:07:35;;;;;;;8.40;1.97;;;6.40;99.90;;;;;;5015963;28;20273;-84
2023/12/10 07:10:01;;;;;;;5.90;2.17;;;6.40;99.90;;;;;;5015462;28;20569;-83
2023/12/10 07:12:27;;;;;;;7.80;2.20;;;6.40;99.90;;;;;;5029998;28;20298;-81
2023/12/10 07:14:52;;;;;;;7.90;2.00;;;6.50;99.90;;;;;;5035561;28;20668;-85
2023/12/10 07:17:18;;;;;;;8.23;2.33;;;6.50;99.90;;;;;;5034151;28;20221;-82
2023/12/10 07:19:43;;;;;;;9.83;2.23;;;6.50;99.90;;;;;;5034836;28;20598;-81
2023/12/10 07:22:09;;;;;;;8.77;2.37;;;6.50;99.90;;;;;;5033871;28;20182;-82
2023/12/10 07:24:36;;;;;;;8.17;2.13;;;6.50;99.90;;;;;;5034658;28;20220;-82
2023/12/10 07:27:03;;;;;;;10.43;2.30;;;6.50;99.90;;;;;;5034063;28;20182;-81
2023/12/10 07:29:28;;;;;;;11.30;2.60;;;6.40;99.90;;;;;;5033448;28;20207;-83
2023/12/10 07:31:54;;;;;;;11.13;2.87;;;6.50;99.90;;;;;;5026691;28;20547;-85
2023/12/10 07:34:20;;;;;;;12.13;2.80;;;6.40;99.90;;;;;;5035120;28;20261;-84
2023/12/10 07:36:45;;;;;;;12.30;2.47;;;6.40;99.90;;;;;;5031746;28;20208;-84
2023/12/10 07:39:13;;;;;;;9.47;2.80;;;6.30;99.90;;;;;;5033137;28;20646;-84
2023/12/10 07:41:38;;;;;;;9.70;2.57;;;6.30;99.90;;;;;;5022616;28;20251;-84
2023/12/10 07:44:04;;;;;;;10.80;2.10;;;6.30;99.90;;;;;;5028463;28;20220;-85
2023/12/10 07:46:30;;;;;;;10.07;2.37;;;6.20;99.90;;;;;;5034009;28;20356;-85
2023/12/10 07:48:56;;;;;;;9.07;2.23;;;6.20;99.90;;;;;;5034807;28;20559;-84
2023/12/10 07:51:21;;;;;;;11.17;2.67;;;6.30;99.90;;;;;;5034613;28;20204;-84
2023/12/10 07:53:47;;;;;;;12.97;3.03;;;6.30;99.90;;;;;;5034105;28;20542;-84
2023/12/10 07:56:12;;;;;;;7.97;2.53;;;6.20;99.90;;;;;;5034906;28;20212;-85
2023/12/10 07:58:38;;;;;;;9.87;2.63;;;6.20;99.90;;;;;;5033578;28;20170;-84
2023/12/10 08:01:04;;;;;;;13.30;3.33;;;6.20;99.90;;;;;;5033796;28;20185;-86
2023/12/10 08:03:29;;;;;;;12.27;2.20;;;6.20;99.90;;;;;;5033067;28;20170;-86
2023/12/10 08:05:56;;;;;;;15.27;2.37;;;6.20;99.90;;;;;;5033194;28;20248;-84
2023/12/10 08:08:22;;;;;;;11.13;2.27;;;6.20;99.90;;;;;;5033541;28;20173;-85
2023/12/10 08:10:49;;;;;;;11.80;2.80;;;6.20;99.90;;;;;;5032795;28;20178;-85
2023/12/10 08:13:15;;;;;;;9.37;2.40;;;6.20;99.90;;;;;;5028542;28;20562;-85
2023/12/10 08:15:41;;;;;;;11.37;2.47;;;6.20;99.90;;;;;;5023580;28;20208;-85
2023/12/10 08:18:07;;;;;;;10.30;2.70;;;6.30;99.90;;;;;;5023699;28;20223;-85
2023/12/10 08:20:33;;;;;;;13.03;2.40;;;6.30;99.90;;;;;;5022676;28;20267;-86
2023/12/10 08:22:59;;;;;;;13.43;2.43;;;6.30;99.90;;;;;;5027031;28;20181;-85
2023/12/10 08:25:25;;;;;;;9.60;2.73;;;6.30;99.90;;;;;;5034467;28;20256;-85
2023/12/10 08:27:51;;;;;;;15.37;2.67;;;6.30;99.90;;;;;;5035077;28;20252;-85
2023/12/10 08:30:16;;;;;;;12.40;4.03;;;6.30;99.90;;;;;;5034334;28;20272;-84
2023/12/10 08:32:42;;;;;;;10.83;2.80;;;6.40;99.90;;;;;;5049887;28;20235;-84
2023/12/10 08:35:08;;;;;;;9.40;2.83;;;6.40;99.90;;;;;;5027275;28;20209;-84
2023/12/10 08:37:33;;;;;;;10.60;2.80;;;6.40;99.90;;;;;;5024602;28;20189;-84
2023/12/10 08:40:02;;;;;;;13.73;3.50;;;6.40;99.90;;;;;;5033380;28;20178;-84
2023/12/10 08:42:28;;;;;;;12.30;2.90;;;6.40;99.90;;;;;;5033456;28;20204;-84
2023/12/10 08:44:53;;;;;;;9.53;2.50;;;6.40;99.90;;;;;;5033310;28;20283;-84
2023/12/10 08:47:19;;;;;;;11.67;2.97;;;6.50;99.90;;;;;;5033221;28;20180;-86
2023/12/10 08:49:44;;;;;;;12.30;2.30;;;6.50;99.90;;;;;;5032493;28;20182;-84
2023/12/10 08:52:10;;;;;;;10.13;2.50;;;6.50;99.90;;;;;;5033316;28;20574;-84
2023/12/10 08:54:35;;;;;;;16.23;2.87;;;6.60;99.90;;;;;;5031737;28;20207;-84
2023/12/10 08:57:01;;;;;;;11.03;2.73;;;6.60;99.90;;;;;;5027402;28;20173;-86
2023/12/10 08:59:27;;;;;;;16.90;3.13;;;6.60;99.90;;;;;;5022709;28;20195;-84
2023/12/10 09:01:52;;;;;;;12.90;2.43;;;6.60;99.90;;;;;;5026669;28;20603;-84
2023/12/10 09:04:18;;;;;;;11.50;2.60;;;6.70;99.90;;;;;;5034055;28;20186;-84
2023/12/10 09:06:43;;;;;;;9.80;2.37;;;6.70;99.90;;;;;;5033996;28;20189;-84
2023/12/10 09:09:09;;;;;;;10.70;2.33;;;6.70;99.90;;;;;;5033759;28;20672;-84
2023/12/10 09:11:34;;;;;;;15.70;2.67;;;6.70;99.90;;;;;;5030772;28;20206;-84
2023/12/10 09:14:00;;;;;;;10.40;2.60;;;6.70;99.90;;;;;;5033824;28;20174;-84
2023/12/10 09:16:26;;;;;;;8.30;1.87;;;6.70;99.90;;;;;;5032853;28;20281;-84
2023/12/10 09:18:52;;;;;;;9.03;2.53;;;6.70;99.90;;;;;;5032686;28;20192;-84
2023/12/10 09:21:18;;;;;;;11.13;2.60;;;6.70;99.90;;;;;;5033996;28;20174;-84
2023/12/10 09:23:43;;;;;;;10.17;2.30;;;6.70;99.90;;;;;;5032540;28;20201;-84
2023/12/10 09:26:10;;;;;;;11.70;3.03;;;6.70;99.90;;;;;;5033604;28;20214;-84
2023/12/10 09:28:36;;;;;;;10.37;4.60;;;6.70;99.90;;;;;;5032802;28;20178;-84
2023/12/10 09:31:01;;;;;;;13.07;2.83;;;6.70;99.90;;;;;;5032191;28;20173;-84
2023/12/10 09:33:27;;;;;;;11.53;2.40;;;6.70;99.90;;;;;;5031853;28;20186;-85
2023/12/10 09:35:53;;;;;;;11.07;2.60;;;6.70;99.90;;;;;;5032563;28;20202;-84
2023/12/10 09:38:18;;;;;;;9.53;2.47;;;6.70;99.90;;;;;;5031922;28;20589;-84
2023/12/10 09:40:44;;;;;;;7.73;2.30;;;6.70;99.90;;;;;;5019556;28;20655;-84
2023/12/10 09:43:10;;;;;;;8.63;2.23;;;6.70;99.90;;;;;;5014329;28;20179;-81
2023/12/10 09:45:35;;;;;;;9.20;2.30;;;6.70;99.90;;;;;;5028123;28;20280;-84
2023/12/10 09:48:02;;;;;;;11.97;2.70;;;6.70;99.90;;;;;;5031592;28;20684;-84
2023/12/10 09:50:29;;;;;;;11.17;2.47;;;6.70;99.90;;;;;;5031536;28;20288;-84
2023/12/10 09:52:55;;;;;;;10.43;3.07;;;6.70;99.90;;;;;;5033231;28;20712;-84
2023/12/10 09:55:21;;;;;;;10.13;2.37;;;6.80;99.90;;;;;;5033530;28;20190;-85
2023/12/10 09:57:47;;;;;;;7.20;1.97;;;6.80;99.90;;;;;;5031925;28;20235;-84
2023/12/10 10:00:13;;;;;;;10.83;2.80;;;6.80;99.90;;;;;;5032937;28;20178;-84
2023/12/10 10:02:39;;;;;;;9.80;2.23;;;6.80;99.90;;;;;;5022549;28;20186;-84
2023/12/10 10:05:09;;;;;;;14.57;2.57;;;6.70;99.90;;;;;;5023957;28;20202;-84
2023/12/10 10:07:35;;;;;;;9.73;3.43;;;6.80;99.90;;;;;;5013088;28;20187;-84
2023/12/10 10:10:01;;;;;;;5.50;2.30;;;6.80;99.90;;;;;;5011448;28;20223;-85
2023/12/10 10:12:30;;;;;;;13.00;3.10;;;6.80;99.90;;;;;;5013208;28;20202;-84
2023/12/10 10:14:57;;;;;;;7.83;2.23;;;6.80;99.90;;;;;;5032624;28;20225;-84
2023/12/10 10:17:26;;;;;;;8.67;2.43;;;6.80;99.90;;;;;;5023755;28;20200;-83
2023/12/10 10:19:52;;;;;;;7.37;2.17;;;6.90;99.90;;;;;;5031201;28;20189;-85
2023/12/10 10:22:18;;;;;;;13.40;2.77;;;6.90;99.90;;;;;;5031841;28;20189;-85
2023/12/10 10:24:43;;;;;;;13.00;2.60;;;6.80;99.90;;;;;;5032408;28;20210;-86
2023/12/10 10:27:09;;;;;;;12.70;2.80;;;6.80;99.90;;;;;;5031310;28;20190;-84
2023/12/10 10:29:35;;;;;;;11.60;2.80;;;6.80;99.90;;;;;;5031231;28;20219;-84
2023/12/10 10:32:01;;;;;;;14.30;2.80;;;6.80;99.90;;;;;;5032748;28;20209;-84
2023/12/10 10:34:27;;;;;;;8.87;2.40;;;6.80;99.90;;;;;;5032549;28;20211;-84
2023/12/10 10:36:53;;;;;;;9.13;2.13;;;6.90;99.90;;;;;;5032042;28;20180;-84
2023/12/10 10:39:19;;;;;;;7.80;2.47;;;6.90;99.90;;;;;;5033272;28;20265;-84
2023/12/10 10:41:44;;;;;;;12.63;2.50;;;6.90;99.90;;;;;;5032197;28;20269;-83
2023/12/10 10:44:10;;;;;;;11.17;2.53;;;6.90;99.90;;;;;;5033926;28;20182;-84
2023/12/10 10:46:36;;;;;;;9.47;2.53;;;7.00;99.90;;;;;;5033273;28;20708;-85
2023/12/10 10:49:02;;;;;;;13.47;2.93;;;7.00;99.90;;;;;;5032465;28;20201;-84
2023/12/10 10:51:31;;;;;;;8.07;2.23;;;7.00;99.90;;;;;;5030121;28;20209;-85
2023/12/10 10:53:58;;;;;;;10.90;2.70;;;7.00;99.90;;;;;;5031987;28;20182;-85
2023/12/10 10:56:25;;;;;;;13.73;4.23;;;7.00;99.90;;;;;;5032124;28;20194;-86
2023/12/10 10:58:51;;;;;;;13.63;2.70;;;7.00;99.90;;;;;;5030484;28;20186;-83
2023/12/10 11:01:36;;;;;;;13.10;2.87;;;7.00;99.90;;;;;;5031304;28;20179;-86
2023/12/10 11:04:01;;;;;;;9.23;2.20;;;7.10;99.90;;;;;;5031727;28;20171;-85
2023/12/10 11:06:27;;;;;;;7.97;2.10;;;7.30;99.90;;;;;;5030353;28;20205;-87
2023/12/10 11:08:59;;;;;;;9.27;2.43;;;7.40;99.90;;;;;;5032399;28;20186;-85
2023/12/10 11:11:28;;;;;;;9.77;2.40;;;7.50;99.90;;;;;;5031060;28;20302;-87
2023/12/10 11:13:54;;;;;;;11.20;2.53;;;7.70;99.90;;;;;;5032039;28;20176;-86
2023/12/10 11:16:23;;;;;;;10.30;2.03;;;7.80;99.90;;;;;;5030729;28;20210;-85
2023/12/10 11:18:58;;;;;;;9.83;2.00;;;7.90;89.50;;;;;;5031797;28;20169;-86
2023/12/10 11:21:24;;;;;;;7.83;2.57;;;7.80;99.90;;;;;;5029824;28;20173;-86
2023/12/10 11:23:52;;;;;;;11.77;2.43;;;7.80;99.90;;;;;;5030205;28;20175;-84
2023/12/10 11:26:17;;;;;;;6.77;2.20;;;7.90;81.60;;;;;;5031892;28;20296;-84
2023/12/10 11:28:44;;;;;;;8.90;2.30;;;7.90;1.00;;;;;;5030403;28;20313;-85
2023/12/10 11:31:10;;;;;;;10.03;2.40;;;7.90;1.00;;;;;;5030625;28;20187;-85
2023/12/10 11:33:40;;;;;;;11.87;2.60;;;8.10;99.90;;;;;;5033238;28;20199;-82
2023/12/10 11:36:06;;;;;;;6.60;2.13;;;8.00;1.00;;;;;;5035428;28;20221;-85
2023/12/10 11:38:32;;;;;;;7.63;2.37;;;8.00;10.80;;;;;;5036380;28;20545;-84
2023/12/10 11:40:58;;;;;;;8.17;2.10;;;8.00;21.90;;;;;;5035115;28;20693;-84
2023/12/10 11:43:25;;;;;;;7.23;2.53;;;8.10;1.00;;;;;;5034439;28;20646;-85
2023/12/10 11:45:52;;;;;;;9.13;2.20;;;8.20;1.00;;;;;;5034333;28;20569;-84
2023/12/10 11:48:19;;;;;;;8.80;2.10;;;8.30;1.00;;;;;;5035724;28;20181;-84
2023/12/10 11:50:46;;;;;;;9.20;2.13;;;8.30;1.00;;;;;;5034930;28;20181;-84
2023/12/10 11:53:14;;;;;;;7.70;1.80;;;8.50;1.00;;;;;;5033698;28;20226;-84
2023/12/10 11:55:41;;;;;;;8.23;2.67;;;8.50;1.00;;;;;;5035431;28;20194;-84
2023/12/10 11:58:07;;;;;;;9.87;2.43;;;8.50;1.00;;;;;;5035241;28;20170;-84
2023/12/10 12:00:34;;;;;;;11.67;2.43;;;8.60;1.00;;;;;;5033419;28;20316;-84
2023/12/10 12:03:05;;;;;;;7.97;2.17;;;8.60;1.00;;;;;;5033711;28;20193;-84
2023/12/10 12:05:31;;;;;;;8.03;2.43;;;8.50;1.00;;;;;;5035011;28;20189;-84
2023/12/10 12:07:57;;;;;;;9.17;1.90;;;8.50;1.00;;;;;;5035236;28;20173;-84
2023/12/10 12:10:22;;;;;;;4.97;1.73;;;8.50;99.90;;;;;;5034908;28;20204;-84
2023/12/10 12:12:48;;;;;;;5.10;1.83;;;8.40;1.00;;;;;;5035012;28;20212;-84
2023/12/10 12:15:16;;;;;;;7.20;1.87;;;8.30;1.00;;;;;;5033756;28;20193;-84
2023/12/10 12:17:42;;;;;;;8.97;2.10;;;8.40;1.00;;;;;;5034606;28;20172;-83
2023/12/10 12:20:15;;;;;;;10.27;2.00;;;8.40;1.00;;;;;;5034254;28;20226;-84
2023/12/10 12:22:40;;;;;;;6.67;1.97;;;8.40;1.00;;;;;;5034978;28;20173;-83
2023/12/10 12:25:07;;;;;;;6.67;1.73;;;8.50;1.00;;;;;;5034871;28;20309;-83
2023/12/10 12:27:32;;;;;;;10.03;2.03;;;8.50;1.00;;;;;;5034661;28;20177;-83
2023/12/10 12:29:58;;;;;;;6.47;1.80;;;8.50;1.00;;;;;;5033955;28;20193;-84
2023/12/10 12:32:23;;;;;;;9.27;2.00;;;8.70;1.00;;;;;;5033189;28;20211;-83
2023/12/10 12:34:49;;;;;;;7.93;2.17;;;8.80;1.00;;;;;;5034323;28;20190;-84
2023/12/10 12:37:15;;;;;;;6.97;1.30;;;8.70;1.00;;;;;;5032990;28;20264;-81
2023/12/10 12:39:40;;;;;;;12.40;1.90;;;8.90;99.90;;;;;;5034010;28;20208;-83
2023/12/10 12:42:06;;;;;;;7.03;1.73;;;8.90;1.00;;;;;;5033027;28;20272;-83
2023/12/10 12:44:31;;;;;;;5.00;1.60;;;8.90;99.90;;;;;;5034205;28;20185;-84
2023/12/10 12:46:57;;;;;;;10.03;1.97;;;9.00;1.00;;;;;;5033987;28;20186;-83